Time;durP1;ratioP1;P1;durP2;ratioP2;P2;SDS_P1;SDS_P2;PMS_P1;PMS_P2;Temp;Humidity;BMP_temperature;BMP_pressure;BME280_temperature;BME280_humidity;BME280_pressure;Samples;Min_cycle;Max_cycle;Signal;HPM_P1;HPM_P2
2023/01/13 00:28:51;;;;;;;;;;;;;;;11.79;57.50;99443.63;1088015;54;19935;-82
2023/01/13 00:29:53;;;;;;;;;;;;;;;11.76;57.59;99441.28;1106606;39;20530;-81
2023/01/13 00:30:57;;;;;;;;;;;;;;;11.76;58.03;99449.31;1088562;54;20638;-80
2023/01/13 00:32:01;;;;;;;;;;;;;;;11.74;58.00;99445.97;1088509;54;19969;-78
2023/01/13 00:33:02;;;;;;;;;;;;;;;11.76;57.94;99446.66;1087606;54;19950;-80
2023/01/13 00:34:06;;;;;;;;;;;;;;;11.81;57.70;99444.28;1087475;54;19953;-80
2023/01/13 00:35:08;;;;;;;;;;;;;;;11.77;57.57;99442.97;1087328;54;19938;-80
2023/01/13 00:36:13;;;;;;;;;;;;;;;11.73;57.67;99450.50;1087502;54;19952;-80
2023/01/13 00:37:14;;;;;;;;;;;;;;;11.78;58.04;99420.53;1087521;54;20007;-80
2023/01/13 00:38:18;;;;;;;;;;;;;;;11.74;57.83;99443.28;1087425;54;19947;-81
2023/01/13 00:39:19;;;;;;;;;;;;;;;11.75;57.87;99439.59;1087543;54;19975;-79
2023/01/13 00:40:24;;;;;;;;;;;;;;;11.73;57.77;99441.63;1087357;54;20693;-79
2023/01/13 00:41:25;;;;;;;;;;;;;;;11.72;58.04;99435.44;1090900;31;20461;-80
2023/01/13 00:43:44;;;;;;;;;;;;;;;11.76;57.72;99431.41;1087370;54;20740;-81
2023/01/13 00:44:50;;;;;;;;;;;;;;;11.79;57.71;99438.28;1087250;54;19976;-80
2023/01/13 00:45:51;;;;;;;;;;;;;;;11.75;57.95;99434.25;1087302;54;19969;-80
2023/01/13 00:46:55;;;;;;;;;;;;;;;11.77;57.92;99432.25;1091896;39;20504;-80
2023/01/13 00:47:56;;;;;;;;;;;;;;;11.74;57.80;99427.22;1087490;54;19939;-79
2023/01/13 00:49:02;;;;;;;;;;;;;;;11.73;58.20;99426.41;1087792;54;19923;-81
2023/01/13 00:50:04;;;;;;;;;;;;;;;11.74;57.76;99428.06;1087604;54;19950;-80
2023/01/13 00:51:15;;;;;;;;;;;;;;;11.71;58.07;99423.03;1087704;54;20622;-80
2023/01/13 00:52:16;;;;;;;;;;;;;;;11.71;58.40;99433.75;1087823;54;19957;-80
2023/01/13 00:53:21;;;;;;;;;;;;;;;11.82;57.86;99428.06;1087748;54;19947;-82
2023/01/13 00:54:22;;;;;;;;;;;;;;;11.74;58.09;99420.03;1087573;54;19935;-80
2023/01/13 00:55:27;;;;;;;;;;;;;;;11.82;57.98;99414.69;1087614;54;19938;-80
2023/01/13 00:56:28;;;;;;;;;;;;;;;11.74;58.40;99422.72;1087768;54;19950;-79
2023/01/13 00:57:33;;;;;;;;;;;;;;;11.69;58.49;99415.19;1087734;54;19954;-81
2023/01/13 00:58:34;;;;;;;;;;;;;;;11.66;59.06;99420.88;1088207;54;19950;-82
2023/01/13 00:59:38;;;;;;;;;;;;;;;11.77;58.58;99417.00;1088566;54;19930;-83
2023/01/13 01:00:42;;;;;;;;;;;;;;;11.70;58.49;99422.22;1095629;39;20447;-82
2023/01/13 01:01:47;;;;;;;;;;;;;;;11.73;58.79;99409.47;1088552;54;19947;-81
2023/01/13 01:02:49;;;;;;;;;;;;;;;11.69;58.90;99414.34;1088492;54;20568;-82
2023/01/13 01:03:53;;;;;;;;;;;;;;;11.67;58.86;99410.97;1094715;39;20459;-83
2023/01/13 01:04:55;;;;;;;;;;;;;;;11.76;58.59;99403.81;1088414;54;19943;-82
2023/01/13 01:05:59;;;;;;;;;;;;;;;11.67;58.72;99411.84;1088592;54;19941;-82
2023/01/13 01:07:03;;;;;;;;;;;;;;;11.70;58.76;99411.50;1088502;54;19946;-81
2023/01/13 01:08:10;;;;;;;;;;;;;;;11.74;58.87;99408.47;1088505;54;19943;-81
2023/01/13 01:09:15;;;;;;;;;;;;;;;11.75;58.67;99405.66;1099828;31;20543;-81
2023/01/13 01:10:16;;;;;;;;;;;;;;;11.66;58.79;99407.47;1088465;54;19949;-83
2023/01/13 01:11:21;;;;;;;;;;;;;;;11.64;58.88;99406.81;1088551;54;19946;-82
2023/01/13 01:12:36;;;;;;;;;;;;;;;11.54;59.15;99408.81;1088356;54;19950;-82
2023/01/13 01:13:37;;;;;;;;;;;;;;;11.57;59.39;99403.13;1088498;54;19935;-83
2023/01/13 01:14:41;;;;;;;;;;;;;;;11.55;59.12;99403.31;1088467;54;20722;-82
2023/01/13 01:15:46;;;;;;;;;;;;;;;11.46;59.58;99400.78;1092519;39;20323;-82
2023/01/13 01:16:50;;;;;;;;;;;;;;;11.53;59.61;99399.97;1088393;54;19950;-80
2023/01/13 01:17:51;;;;;;;;;;;;;;;11.46;59.64;99406.13;1088334;54;19967;-81
2023/01/13 01:18:56;;;;;;;;;;;;;;;11.42;59.96;99402.94;1088537;54;19938;-82
2023/01/13 01:19:57;;;;;;;;;;;;;;;11.35;60.02;99400.09;1088449;54;19939;-81
2023/01/13 01:21:02;;;;;;;;;;;;;;;11.30;59.99;99391.75;1088341;54;19942;-81
2023/01/13 01:22:06;;;;;;;;;;;;;;;11.31;60.21;99405.94;1088353;54;19967;-81
2023/01/13 01:23:13;;;;;;;;;;;;;;;11.39;59.85;99406.81;1091947;39;20758;-82
2023/01/13 01:24:17;;;;;;;;;;;;;;;11.44;59.62;99400.97;1088487;54;19943;-82
2023/01/13 01:25:18;;;;;;;;;;;;;;;11.48;59.83;99406.81;1088487;54;19923;-82
2023/01/13 01:26:23;;;;;;;;;;;;;;;11.43;59.71;99414.50;1089025;39;20480;-82
2023/01/13 01:27:25;;;;;;;;;;;;;;;11.47;59.89;99414.00;1093047;39;20476;-82
2023/01/13 01:28:29;;;;;;;;;;;;;;;11.45;59.77;99415.16;1088564;54;19962;-82
2023/01/13 01:29:31;;;;;;;;;;;;;;;11.45;60.08;99412.47;1087915;54;19942;-81
2023/01/13 01:30:35;;;;;;;;;;;;;;;11.44;59.82;99417.00;1088503;54;19942;-83
2023/01/13 01:31:39;;;;;;;;;;;;;;;11.41;59.73;99411.16;1088584;54;19963;-82
2023/01/13 01:32:43;;;;;;;;;;;;;;;11.28;60.48;99417.81;1088509;54;19942;-81
2023/01/13 01:33:46;;;;;;;;;;;;;;;11.30;60.47;99413.16;1088477;54;19971;-83
2023/01/13 01:34:50;;;;;;;;;;;;;;;11.19;60.66;99416.97;1088496;54;20473;-83
2023/01/13 01:35:51;;;;;;;;;;;;;;;11.20;60.64;99425.84;1088545;54;19935;-82
2023/01/13 01:36:57;;;;;;;;;;;;;;;11.30;60.46;99421.19;1088699;46;19962;-82
2023/01/13 01:37:58;;;;;;;;;;;;;;;11.28;60.35;99423.19;1089036;46;19942;-83
2023/01/13 01:39:02;;;;;;;;;;;;;;;11.22;60.83;99419.31;1090958;46;19950;-81
2023/01/13 01:40:04;;;;;;;;;;;;;;;11.26;60.76;99411.78;1090295;46;19934;-84
2023/01/13 01:41:08;;;;;;;;;;;;;;;11.36;60.37;99419.69;1088533;54;19954;-82
2023/01/13 01:44:00;;;;;;;;;;;;;;;11.27;60.58;99413.47;1088580;54;19923;-82
2023/01/13 01:45:16;;;;;;;;;;;;;;;11.19;60.80;99413.47;1088354;54;19935;-82
2023/01/13 01:46:18;;;;;;;;;;;;;;;11.13;61.35;99417.63;1093029;39;20451;-82
2023/01/13 01:47:29;;;;;;;;;;;;;;;11.22;61.04;99408.63;1088663;54;19953;-81
2023/01/13 01:48:36;;;;;;;;;;;;;;;11.30;60.67;99414.97;1088564;54;20066;-82
2023/01/13 01:49:41;;;;;;;;;;;;;;;11.27;61.04;99408.13;1088462;54;19943;-82
2023/01/13 01:50:51;;;;;;;;;;;;;;;11.27;61.15;99408.13;1087325;54;19943;-81
2023/01/13 01:51:57;;;;;;;;;;;;;;;11.23;61.42;99412.16;1088845;39;20350;-81
2023/01/13 01:53:01;;;;;;;;;;;;;;;11.26;61.63;99403.78;1087342;54;19958;-80
2023/01/13 01:54:11;;;;;;;;;;;;;;;11.19;62.01;99402.75;1087248;54;19946;-80
2023/01/13 01:55:13;;;;;;;;;;;;;;;11.13;62.73;99406.09;1089427;39;20349;-80
2023/01/13 01:56:19;;;;;;;;;;;;;;;11.10;62.48;99398.41;1086599;54;19954;-80
2023/01/13 01:57:23;;;;;;;;;;;;;;;11.02;62.37;99402.72;1086317;54;19947;-78
2023/01/13 01:58:30;;;;;;;;;;;;;;;10.98;63.05;99409.41;1087359;54;19943;-80
2023/01/13 01:59:32;;;;;;;;;;;;;;;10.96;62.85;99411.38;1088237;54;19922;-81
2023/01/13 02:02:07;;;;;;;;;;;;;;;10.91;63.52;99406.53;1088055;54;19943;-81
2023/01/13 02:06:16;;;;;;;;;;;;;;;10.90;63.61;99399.53;1088051;54;19943;-81
2023/01/13 02:07:19;;;;;;;;;;;;;;;10.91;63.62;99401.19;1088677;46;19939;-82
2023/01/13 02:08:24;;;;;;;;;;;;;;;10.96;63.83;99399.88;1087329;54;19945;-82
2023/01/13 02:09:25;;;;;;;;;;;;;;;11.01;63.39;99406.41;1087131;54;19950;-81
2023/01/13 02:10:31;;;;;;;;;;;;;;;10.98;63.54;99392.53;1087107;54;20480;-82
2023/01/13 02:12:52;;;;;;;;;;;;;;;10.93;63.39;99401.03;1086594;54;19958;-79
2023/01/13 02:13:56;;;;;;;;;;;;;;;10.82;63.71;99406.69;1087052;54;19939;-79
2023/01/13 02:14:59;;;;;;;;;;;;;;;10.85;63.85;99395.66;1087084;54;19958;-79
2023/01/13 02:16:10;;;;;;;;;;;;;;;10.82;63.40;99402.16;1086669;54;19969;-79
2023/01/13 02:17:18;;;;;;;;;;;;;;;10.85;63.83;99393.81;1086687;46;19939;-78
2023/01/13 02:18:32;;;;;;;;;;;;;;;10.74;64.13;99399.47;1086921;54;19949;-80
2023/01/13 04:09:35;;;;;;;;;;;;;;;10.99;64.28;99300.59;1087511;54;19934;-81
2023/01/13 04:10:39;;;;;;;;;;;;;;;11.00;64.26;99302.28;1088178;54;19949;-81
2023/01/13 04:11:45;;;;;;;;;;;;;;;10.88;64.11;99299.91;1088006;54;19962;-81
2023/01/13 04:13:01;;;;;;;;;;;;;;;10.93;64.44;99296.75;1088047;46;20020;-81
2023/01/13 04:14:06;;;;;;;;;;;;;;;10.96;64.14;99298.25;1088018;54;19939;-82
2023/01/13 04:15:08;;;;;;;;;;;;;;;10.89;64.26;99282.88;1088015;54;19938;-80
2023/01/13 04:16:14;;;;;;;;;;;;;;;10.83;64.51;99296.06;1093513;39;20562;-82
2023/01/13 04:17:15;;;;;;;;;;;;;;;10.91;64.51;99304.09;1088388;54;19962;-81
2023/01/13 04:18:22;;;;;;;;;;;;;;;10.88;64.52;99291.03;1088516;54;19934;-82
2023/01/13 04:19:23;;;;;;;;;;;;;;;10.87;64.62;99286.69;1088511;54;19963;-82
2023/01/13 04:20:27;;;;;;;;;;;;;;;10.97;64.24;99294.56;1088213;54;19950;-81
2023/01/13 04:21:32;;;;;;;;;;;;;;;10.99;64.28;99285.38;1090597;46;19958;-82
2023/01/13 04:22:33;;;;;;;;;;;;;;;10.91;64.22;99282.69;1088391;54;19949;-81
2023/01/13 04:23:37;;;;;;;;;;;;;;;10.84;64.75;99284.38;1088336;54;20032;-82
2023/01/13 04:24:41;;;;;;;;;;;;;;;10.88;64.80;99286.53;1088326;54;19939;-81
2023/01/13 04:25:46;;;;;;;;;;;;;;;10.90;64.78;99283.69;1088390;54;19934;-83
2023/01/13 04:26:47;;;;;;;;;;;;;;;10.85;64.94;99288.72;1089140;39;20530;-81
2023/01/13 04:33:36;;;;;;;;;;;;;;;10.75;65.48;99288.84;1087806;54;19943;-82
2023/01/13 04:34:39;;;;;;;;;;;;;;;10.85;64.97;99296.75;1087585;47;19954;-83
2023/01/13 04:36:01;;;;;;;;;;;;;;;10.87;65.18;99292.03;1087872;54;20015;-81
2023/01/13 04:37:07;;;;;;;;;;;;;;;10.95;64.88;99289.41;1088094;54;19934;-77
2023/01/13 05:06:14;;;;;;;;;;;;;;;10.87;65.67;99297.38;1088108;54;19957;-78
2023/01/13 05:43:18;;;;;;;;;;;;;;;10.92;64.29;99279.03;1087508;54;19938;-80
2023/01/13 05:43:39;;;;;;;;;;;;;;;11.06;63.91;99274.84;1088420;54;19957;-81
2023/01/13 05:44:46;;;;;;;;;;;;;;;11.08;63.78;99265.66;1088399;54;19938;-81
2023/01/13 05:45:48;;;;;;;;;;;;;;;11.03;64.03;99261.81;1088409;54;19923;-82
2023/01/13 05:46:52;;;;;;;;;;;;;;;10.99;64.14;99263.16;1088474;54;19943;-82
2023/01/13 05:47:56;;;;;;;;;;;;;;;11.05;63.60;99268.66;1088448;54;19954;-82
2023/01/13 05:49:02;;;;;;;;;;;;;;;11.10;63.76;99262.81;1088443;54;19998;-82
2023/01/13 05:50:04;;;;;;;;;;;;;;;11.11;63.88;99258.31;1088556;54;19950;-83
2023/01/13 05:51:08;;;;;;;;;;;;;;;11.11;63.64;99266.31;1088323;54;19949;-81
2023/01/13 05:52:23;;;;;;;;;;;;;;;11.06;63.64;99261.47;1088473;54;19950;-82
2023/01/13 05:53:33;;;;;;;;;;;;;;;10.96;63.86;99264.31;1092494;39;20694;-82
2023/01/13 05:54:37;;;;;;;;;;;;;;;10.99;63.97;99261.31;1088450;54;19942;-82
2023/01/13 05:55:46;;;;;;;;;;;;;;;11.10;63.85;99253.94;1088207;54;19934;-81
2023/01/13 05:56:52;;;;;;;;;;;;;;;10.93;63.84;99253.97;1088370;54;19942;-81
2023/01/13 05:58:01;;;;;;;;;;;;;;;11.01;63.76;99253.97;1088251;54;19938;-81
2023/01/13 05:59:03;;;;;;;;;;;;;;;11.05;63.62;99249.09;1088282;54;19942;-81
2023/01/13 06:00:13;;;;;;;;;;;;;;;11.08;63.44;99249.59;1089159;46;19942;-82
2023/01/13 06:01:17;;;;;;;;;;;;;;;11.12;63.35;99247.41;1088416;54;19946;-81
2023/01/13 06:02:25;;;;;;;;;;;;;;;11.12;63.16;99246.59;1088164;54;19949;-82
2023/01/13 06:03:32;;;;;;;;;;;;;;;11.12;63.33;99252.78;1097443;39;20514;-80
2023/01/13 06:04:43;;;;;;;;;;;;;;;11.18;63.14;99252.13;1088038;54;19978;-80
2023/01/13 06:05:57;;;;;;;;;;;;;;;;;;;;;
2023/01/13 06:08:17;;;;;;;;;;;;;;;11.04;63.43;99234.91;1087829;54;19975;-80
2023/01/13 06:09:31;;;;;;;;;;;;;;;11.12;63.09;99241.25;1088186;54;19967;-82
2023/01/13 06:10:36;;;;;;;;;;;;;;;11.11;62.94;99251.09;1088185;54;19942;-81
2023/01/13 06:11:37;;;;;;;;;;;;;;;11.09;62.80;99245.09;1087898;54;19933;-82
2023/01/13 06:12:44;;;;;;;;;;;;;;;11.14;62.75;99245.41;1088153;54;19999;-81
2023/01/13 06:13:59;;;;;;;;;;;;;;;11.07;63.01;99247.94;1088182;54;19943;-81
2023/01/13 06:15:03;;;;;;;;;;;;;;;11.18;62.68;99248.59;1088130;54;20015;-81
2023/01/13 06:16:09;;;;;;;;;;;;;;;11.13;62.72;99243.75;1088151;54;19990;-81
2023/01/13 06:17:11;;;;;;;;;;;;;;;11.10;62.69;99243.25;1088130;54;19934;-79
2023/01/13 06:43:29;;;;;;;;;;;;;;;11.30;62.10;99244.59;1070205;54;21999;-86
2023/01/13 06:48:34;;;;;;;;;;;;;;;11.23;62.09;99249.75;1073955;54;19950;-83
2023/01/13 07:01:19;;;;;;;;;;;;;;;11.22;62.52;99263.31;1072359;54;20810;-82
2023/01/13 07:02:20;;;;;;;;;;;;;;;11.06;63.22;99270.31;1095222;39;20420;-79
2023/01/13 07:25:58;;;;;;;;;;;;;;;10.93;65.05;99273.50;1088150;54;19942;-83
2023/01/13 07:27:21;;;;;;;;;;;;;;;10.92;65.48;99273.69;1088440;54;19967;-80
2023/01/13 07:28:33;;;;;;;;;;;;;;;10.95;65.16;99272.50;1088670;54;19979;-80
2023/01/13 07:29:37;;;;;;;;;;;;;;;10.93;65.41;99270.00;1091332;46;19931;-83
2023/01/13 07:30:44;;;;;;;;;;;;;;;10.87;65.66;99265.31;1088623;54;19941;-81
2023/01/13 07:31:54;;;;;;;;;;;;;;;10.98;65.52;99270.31;1088677;54;19942;-82
2023/01/13 07:33:17;;;;;;;;;;;;;;;10.87;65.66;99276.00;1088624;54;19950;-81
2023/01/13 07:48:20;;;;;;;;;;;;;;;10.83;65.86;99263.97;1088245;54;19979;-82
2023/01/13 07:49:24;;;;;;;;;;;;;;;10.92;65.70;99262.97;1088751;46;19952;-82
2023/01/13 07:50:51;;;;;;;;;;;;;;;10.90;65.45;99267.66;1088329;54;19954;-81
2023/01/13 07:52:08;;;;;;;;;;;;;;;10.93;65.48;99275.34;1088357;54;19967;-81
2023/01/13 07:54:29;;;;;;;;;;;;;;;10.88;65.44;99288.38;1088211;54;19947;-80
2023/01/13 07:55:40;;;;;;;;;;;;;;;10.89;66.09;99282.88;1091122;46;19959;-81
2023/01/13 07:58:14;;;;;;;;;;;;;;;10.89;66.87;99292.72;1088218;54;19934;-80
2023/01/13 09:48:50;;;;;;;;;;;;;;;9.16;74.10;99533.53;1085469;54;53557;-80
2023/01/13 09:55:16;;;;;;;;;;;;;;;9.18;73.85;99539.56;1088469;39;20200;-78
2023/01/13 09:56:24;;;;;;;;;;;;;;;9.17;73.91;99535.22;1087856;54;19942;-79
2023/01/13 09:57:28;;;;;;;;;;;;;;;9.18;73.87;99542.25;1087990;54;19954;-79
2023/01/13 09:58:32;;;;;;;;;;;;;;;9.13;74.21;99552.53;1088015;54;19942;-78
2023/01/13 09:59:39;;;;;;;;;;;;;;;9.29;74.51;99543.88;1090160;46;20730;-79
2023/01/13 10:00:47;;;;;;;;;;;;;;;9.20;74.04;99540.28;1088489;46;19935;-82
2023/01/13 10:01:58;;;;;;;;;;;;;;;9.16;74.17;99546.88;1088442;54;19955;-81
2023/01/13 10:03:08;;;;;;;;;;;;;;;9.18;74.25;99536.91;1088371;54;19978;-80
2023/01/13 10:04:15;;;;;;;;;;;;;;;9.21;74.29;99527.75;1088352;54;19943;-80
2023/01/13 10:05:31;;;;;;;;;;;;;;;9.17;74.67;99529.88;1088492;54;19923;-81
2023/01/13 10:06:37;;;;;;;;;;;;;;;9.12;74.58;99532.19;1088354;46;19950;-80
2023/01/13 10:07:41;;;;;;;;;;;;;;;9.16;74.77;99543.38;1088207;54;19966;-79
2023/01/13 10:08:55;;;;;;;;;;;;;;;9.17;74.86;99535.22;1091957;46;19922;-79
2023/01/13 10:09:58;;;;;;;;;;;;;;;9.19;74.97;99543.91;1101443;46;20047;-80
2023/01/13 10:13:57;;;;;;;;;;;;;;;9.21;75.16;99531.28;1088349;54;19938;-79
2023/01/13 10:15:01;;;;;;;;;;;;;;;9.27;74.98;99526.34;1088344;54;19953;-81
2023/01/13 10:16:13;;;;;;;;;;;;;;;9.28;75.23;99528.88;1088242;54;19934;-80
2023/01/13 10:17:20;;;;;;;;;;;;;;;9.25;75.35;99529.16;1088033;54;19962;-79
2023/01/13 10:18:27;;;;;;;;;;;;;;;9.32;75.34;99537.41;1088013;54;19946;-81
2023/01/13 10:19:36;;;;;;;;;;;;;;;9.34;75.16;99530.09;1088081;54;20666;-81
2023/01/13 10:20:47;;;;;;;;;;;;;;;9.36;75.27;99528.97;1088040;54;19950;-80
2023/01/13 10:22:00;;;;;;;;;;;;;;;9.36;75.43;99533.44;1088102;54;19927;-79
2023/01/13 10:23:10;;;;;;;;;;;;;;;9.34;75.30;99532.78;1088037;54;19943;-81
2023/01/13 10:24:21;;;;;;;;;;;;;;;9.36;75.88;99528.09;1088219;54;19949;-81
2023/01/13 10:25:26;;;;;;;;;;;;;;;9.34;75.70;99527.44;1088301;54;20524;-82
2023/01/13 10:26:44;;;;;;;;;;;;;;;9.41;75.53;99528.50;1088061;54;20027;-80
2023/01/13 10:27:48;;;;;;;;;;;;;;;9.38;75.65;99531.47;1088276;54;20568;-80
2023/01/13 10:28:53;;;;;;;;;;;;;;;9.45;75.85;99519.19;1088258;54;20075;-81
2023/01/13 10:29:59;;;;;;;;;;;;;;;9.40;75.83;99518.00;1090338;39;20631;-80
2023/01/13 10:31:04;;;;;;;;;;;;;;;9.43;76.04;99518.53;1088300;54;19938;-81
2023/01/13 10:32:14;;;;;;;;;;;;;;;9.39;76.35;99511.81;1088476;54;20363;-80
2023/01/13 10:33:19;;;;;;;;;;;;;;;9.39;76.00;99503.81;1088434;54;19942;-80
2023/01/13 10:34:21;;;;;;;;;;;;;;;9.37;76.43;99513.78;1088391;54;19954;-79
2023/01/13 10:35:40;;;;;;;;;;;;;;;9.39;76.03;99506.47;1088520;54;19927;-80
2023/01/13 10:36:55;;;;;;;;;;;;;;;9.40;75.60;99508.16;1093008;46;19938;-80
2023/01/13 10:38:17;;;;;;;;;;;;;;;9.32;75.31;99506.22;1090218;46;19939;-80
2023/01/13 10:39:19;;;;;;;;;;;;;;;9.50;75.24;99508.94;1093487;46;19935;-80
2023/01/13 10:40:24;;;;;;;;;;;;;;;9.52;75.12;99516.78;1088116;54;19942;-80
2023/01/13 10:41:29;;;;;;;;;;;;;;;9.46;75.11;99510.22;1087901;54;20010;-80
2023/01/13 10:42:30;;;;;;;;;;;;;;;9.49;75.27;99511.75;1087923;54;19950;-79
2023/01/13 10:43:34;;;;;;;;;;;;;;;9.50;74.70;99511.59;1087968;54;19950;-80
2023/01/13 10:44:45;;;;;;;;;;;;;;;9.50;74.72;99508.94;1087891;54;19943;-80
2023/01/13 10:45:59;;;;;;;;;;;;;;;9.47;74.67;99519.06;1087976;54;19954;-81
2023/01/13 10:47:02;;;;;;;;;;;;;;;9.49;74.37;99509.91;1087916;54;19963;-80
2023/01/13 10:48:05;;;;;;;;;;;;;;;9.51;74.65;99515.09;1088074;54;19927;-79
2023/01/13 10:49:26;;;;;;;;;;;;;;;9.46;74.29;99518.22;1087453;54;19950;-82
2023/01/13 10:50:31;;;;;;;;;;;;;;;9.51;73.93;99521.28;1087968;54;19927;-80
2023/01/13 10:51:44;;;;;;;;;;;;;;;9.54;73.21;99517.47;1094504;39;20500;-79
2023/01/13 10:52:58;;;;;;;;;;;;;;;9.55;73.13;99526.31;1087959;54;20596;-79
2023/01/13 10:54:04;;;;;;;;;;;;;;;9.54;73.08;99530.81;1087985;54;19945;-80
2023/01/13 10:55:24;;;;;;;;;;;;;;;9.50;72.94;99530.28;1087928;54;19968;-79
2023/01/13 10:56:32;;;;;;;;;;;;;;;9.54;72.79;99546.81;1087967;54;19947;-80
2023/01/13 10:57:40;;;;;;;;;;;;;;;9.58;72.77;99544.69;1088057;54;19943;-82
2023/01/13 10:58:41;;;;;;;;;;;;;;;9.50;72.45;99540.94;1087918;54;19990;-81
2023/01/13 10:59:45;;;;;;;;;;;;;;;9.48;72.66;99548.25;1087849;54;19942;-81
2023/01/13 11:06:48;;;;;;;;;;;;;;;9.47;72.86;99543.91;1087724;54;19973;-80
2023/01/13 11:07:56;;;;;;;;;;;;;;;9.59;73.07;99527.69;1089180;46;19949;-79
2023/01/13 11:09:19;;;;;;;;;;;;;;;9.54;72.50;99536.16;1091854;46;19942;-80
2023/01/13 11:17:30;;;;;;;;;;;;;;;9.43;72.75;99555.88;1088318;54;19938;-82
2023/01/13 11:19:10;;;;;;;;;;;;;;;9.45;73.25;99550.38;1088411;54;19947;-81
2023/01/13 11:20:28;;;;;;;;;;;;;;;9.40;72.75;99550.00;1088353;54;19923;-80
2023/01/13 11:21:39;;;;;;;;;;;;;;;9.38;73.07;99546.66;1088411;54;19950;-81
2023/01/13 11:22:45;;;;;;;;;;;;;;;9.36;73.30;99552.97;1096155;39;20474;-82
2023/01/13 11:33:24;;;;;;;;;;;;;;;9.46;73.02;99544.06;1088105;54;19919;-83
2023/01/13 11:34:35;;;;;;;;;;;;;;;9.51;72.97;99537.28;1088048;54;19938;-82
2023/01/13 11:35:43;;;;;;;;;;;;;;;9.53;72.91;99537.13;1088077;54;19953;-80
2023/01/13 11:36:53;;;;;;;;;;;;;;;9.55;72.92;99539.63;1087960;54;20493;-82
2023/01/13 11:38:07;;;;;;;;;;;;;;;9.50;72.90;99540.94;1088170;54;19941;-81
2023/01/13 11:46:55;;;;;;;;;;;;;;;9.54;72.02;99557.50;1087747;54;19915;-80
2023/01/13 11:48:12;;;;;;;;;;;;;;;9.56;71.73;99552.84;1087957;54;19942;-81
2023/01/13 11:49:25;;;;;;;;;;;;;;;9.59;71.49;99554.38;1087878;54;19954;-81
2023/01/13 11:50:36;;;;;;;;;;;;;;;9.56;71.94;99554.66;1087978;54;20011;-83
2023/01/13 11:51:55;;;;;;;;;;;;;;;9.52;72.07;99555.00;1097666;39;20570;-80
2023/01/13 11:53:16;;;;;;;;;;;;;;;9.58;72.26;99560.69;1088012;54;19968;-81
2023/01/13 11:54:36;;;;;;;;;;;;;;;9.59;71.65;99560.53;1087924;54;19926;-82
2023/01/13 11:55:57;;;;;;;;;;;;;;;9.64;71.58;99562.75;1088137;54;19926;-83
2023/01/13 11:57:27;;;;;;;;;;;;;;;9.63;71.38;99561.09;1088082;54;19927;-83
2023/01/13 11:58:46;;;;;;;;;;;;;;;9.73;71.79;99567.19;1087842;54;19927;-81
2023/01/13 12:00:02;;;;;;;;;;;;;;;9.73;71.71;99567.19;1087996;54;19938;-81
2023/01/13 12:06:01;;;;;;;;;;;;;;;9.69;70.88;99555.16;1088494;54;19926;-84
2023/01/13 12:07:21;;;;;;;;;;;;;;;9.74;70.77;99550.19;1095054;47;19927;-84
2023/01/13 12:08:44;;;;;;;;;;;;;;;9.70;70.59;99545.31;1088315;54;19939;-83
2023/01/13 12:23:01;;;;;;;;;;;;;;;10.12;69.25;99534.84;1088049;54;19969;-80
2023/01/13 12:24:22;;;;;;;;;;;;;;;10.09;68.31;99537.00;1089401;47;20316;-80
2023/01/13 12:38:21;;;;;;;;;;;;;;;10.24;66.08;99566.66;1087276;54;19942;-82
2023/01/13 12:45:50;;;;;;;;;;;;;;;9.90;67.30;99583.41;1088249;54;19931;-83
2023/01/13 12:46:54;;;;;;;;;;;;;;;9.86;66.56;99577.53;1087988;54;19937;-81
2023/01/13 12:48:21;;;;;;;;;;;;;;;9.74;66.25;99587.56;1088087;54;19931;-81
2023/01/13 12:49:30;;;;;;;;;;;;;;;9.68;65.57;99582.81;1087789;54;19942;-82
2023/01/13 13:15:24;;;;;;;;;;;;;;;9.29;66.25;99602.56;1090483;39;21019;-80
2023/01/13 13:16:41;;;;;;;;;;;;;;;9.25;67.09;99605.69;1088589;54;19943;-81
2023/01/13 13:17:46;;;;;;;;;;;;;;;9.17;66.53;99604.56;1088479;54;19950;-80
2023/01/13 13:18:51;;;;;;;;;;;;;;;9.13;65.81;99602.34;1088374;54;19935;-80
2023/01/13 13:19:53;;;;;;;;;;;;;;;9.18;66.08;99613.41;1088484;54;19943;-80
2023/01/13 13:21:01;;;;;;;;;;;;;;;9.14;65.86;99596.88;1088429;54;19933;-82
2023/01/13 13:22:18;;;;;;;;;;;;;;;9.20;65.20;99598.94;1088476;54;20011;-81
2023/01/13 13:34:43;;;;;;;;;;;;;;;8.93;67.68;99609.56;1088393;54;19938;-83
2023/01/13 13:36:01;;;;;;;;;;;;;;;8.98;67.71;99604.63;1089817;46;19933;-82
2023/01/13 14:04:10;;;;;;;;;;;;;;;8.87;65.27;99641.16;1087773;54;19930;-82
2023/01/13 14:05:27;;;;;;;;;;;;;;;8.93;65.10;99647.72;1088183;54;19942;-82
2023/01/13 14:08:33;;;;;;;;;;;;;;;8.81;65.85;99647.06;1088297;54;19990;-82
2023/01/13 14:12:52;;;;;;;;;;;;;;;8.83;66.33;99671.75;1088140;54;19927;-82
2023/01/13 14:14:44;;;;;;;;;;;;;;;8.88;65.98;99668.66;1094583;46;19938;-82
2023/01/13 14:16:10;;;;;;;;;;;;;;;8.85;65.86;99660.94;1088408;54;19949;-83
2023/01/13 14:17:42;;;;;;;;;;;;;;;8.84;65.87;99675.25;1088562;54;19927;-81
2023/01/13 14:18:58;;;;;;;;;;;;;;;8.83;65.76;99685.06;1088687;54;19927;-83
2023/01/13 14:21:52;;;;;;;;;;;;;;;8.80;65.24;99689.84;1088435;54;19915;-82
2023/01/13 14:23:21;;;;;;;;;;;;;;;8.93;64.94;99692.22;1093000;46;19927;-81
2023/01/13 14:24:53;;;;;;;;;;;;;;;;;;;;;
2023/01/13 14:26:05;;;;;;;;;;;;;;;8.90;65.42;99691.50;1088408;54;20034;-82
2023/01/13 14:27:35;;;;;;;;;;;;;;;8.91;65.15;99695.03;1089344;46;19942;-81
2023/01/13 14:29:14;;;;;;;;;;;;;;;8.89;65.12;99692.50;1088283;54;19939;-82
2023/01/13 14:30:19;;;;;;;;;;;;;;;8.86;65.62;99695.47;1088102;54;19942;-82
2023/01/13 14:34:01;;;;;;;;;;;;;;;8.82;65.48;99686.06;1087848;54;20003;-82
2023/01/13 14:35:10;;;;;;;;;;;;;;;8.83;65.87;99692.25;1088691;54;19947;-83
2023/01/13 14:36:41;;;;;;;;;;;;;;;8.78;65.71;99683.81;1088655;54;19943;-83
2023/01/13 14:37:47;;;;;;;;;;;;;;;8.77;65.32;99688.31;1088732;54;19949;-83
2023/01/13 14:39:23;;;;;;;;;;;;;;;8.73;65.38;99698.44;1088748;54;20002;-84
2023/01/13 14:40:52;;;;;;;;;;;;;;;8.76;64.53;99699.09;1088648;54;19942;-82
2023/01/13 15:06:48;;;;;;;;;;;;;;;8.61;67.19;99736.00;1087583;54;19935;-81
2023/01/13 15:07:56;;;;;;;;;;;;;;;8.63;67.49;99726.03;1088335;54;19958;-82
2023/01/13 15:09:07;;;;;;;;;;;;;;;8.66;67.42;99739.91;1088353;54;19943;-81
2023/01/13 15:10:17;;;;;;;;;;;;;;;8.58;67.52;99740.63;1088724;54;19934;-80
2023/01/13 15:11:30;;;;;;;;;;;;;;;8.61;67.70;99736.00;1088633;54;19950;-83
2023/01/13 15:12:34;;;;;;;;;;;;;;;8.53;68.08;99734.88;1091770;39;20377;-82
2023/01/13 15:14:14;;;;;;;;;;;;;;;8.64;68.06;99752.56;1088323;54;19933;-81
2023/01/13 15:15:31;;;;;;;;;;;;;;;8.60;68.00;99750.31;1088359;54;19969;-80
2023/01/13 15:16:49;;;;;;;;;;;;;;;8.55;67.99;99742.72;1088143;46;19943;-81
2023/01/13 15:17:58;;;;;;;;;;;;;;;8.51;67.95;99750.16;1088377;54;19950;-82
2023/01/13 15:19:07;;;;;;;;;;;;;;;8.50;68.15;99755.63;1092207;46;19967;-80
2023/01/13 15:20:12;;;;;;;;;;;;;;;8.48;68.27;99753.09;1088370;54;19927;-81
2023/01/13 15:21:25;;;;;;;;;;;;;;;8.49;68.06;99746.81;1088320;54;19950;-81
2023/01/13 15:22:38;;;;;;;;;;;;;;;8.53;68.03;99750.03;1088412;54;19942;-81
2023/01/13 15:23:42;;;;;;;;;;;;;;;8.55;68.07;99754.22;1088420;54;19982;-80
2023/01/13 15:24:49;;;;;;;;;;;;;;;8.63;67.97;99756.22;1088413;54;19966;-81
2023/01/13 15:25:55;;;;;;;;;;;;;;;8.55;67.97;99756.91;1090288;46;19930;-81
2023/01/13 15:26:59;;;;;;;;;;;;;;;8.52;67.95;99759.00;1093799;46;19974;-80
2023/01/13 15:28:10;;;;;;;;;;;;;;;8.53;67.99;99756.19;1090195;46;19946;-80
2023/01/13 15:29:18;;;;;;;;;;;;;;;8.48;67.67;99766.44;1088609;54;19950;-81
2023/01/13 15:30:37;;;;;;;;;;;;;;;8.51;67.74;99765.31;1092076;46;19934;-79
2023/01/13 15:31:41;;;;;;;;;;;;;;;8.50;67.61;99767.09;1091861;46;19923;-82
2023/01/13 15:33:16;;;;;;;;;;;;;;;8.48;67.74;99768.22;1092164;46;19930;-81
2023/01/13 15:34:28;;;;;;;;;;;;;;;8.53;67.60;99760.69;1088365;54;19973;-84
2023/01/13 15:37:01;;;;;;;;;;;;;;;8.46;67.30;99771.00;1088084;54;19938;-80
2023/01/13 15:47:22;;;;;;;;;;;;;;;;;;;;;
2023/01/13 15:48:24;;;;;;;;;;;;;;;8.50;66.13;99776.94;1088545;54;19934;-83
2023/01/13 15:57:55;;;;;;;;;;;;;;;8.45;64.98;99764.00;1087837;54;19934;-84
2023/01/13 16:08:44;;;;;;;;;;;;;;;;;;;;;
2023/01/13 16:10:09;;;;;;;;;;;;;;;8.41;64.73;99789.22;1086555;54;19998;-79